Time;durP1;ratioP1;P1;durP2;ratioP2;P2;SDS_P1;SDS_P2;PMS_P1;PMS_P2;Temp;Humidity;BMP_temperature;BMP_pressure;BME280_temperature;BME280_humidity;BME280_pressure;Samples;Min_cycle;Max_cycle;Signal;HPM_P1;HPM_P2
2021/12/15 00:00:53;;;;;;;63.30;40.05;;;;;;;3.91;100.00;100758.03;5061845;28;20018;-81
2021/12/15 00:03:19;;;;;;;67.05;41.13;;;;;;;4.04;100.00;100771.75;5058709;28;20025;-81
2021/12/15 00:05:47;;;;;;;61.08;39.25;;;;;;;3.98;100.00;100758.91;5062499;28;20029;-80
2021/12/15 00:08:13;;;;;;;60.90;39.70;;;;;;;4.05;100.00;100763.19;5072736;28;20025;-81
2021/12/15 00:10:41;;;;;;;61.55;37.60;;;;;;;4.03;100.00;100758.88;5075143;28;20077;-81
2021/12/15 00:13:07;;;;;;;64.07;38.47;;;;;;;4.07;100.00;100766.59;5067180;28;20387;-80
2021/12/15 00:15:34;;;;;;;54.92;35.33;;;;;;;4.07;100.00;100766.59;5064228;28;20025;-80
2021/12/15 00:17:59;;;;;;;56.70;36.78;;;;;;;3.98;100.00;100743.44;5063915;28;20039;-80
2021/12/15 00:20:27;;;;;;;52.47;35.97;;;;;;;4.06;100.00;100764.88;5061828;28;20028;-81
2021/12/15 00:22:55;;;;;;;52.15;35.13;;;;;;;4.12;100.00;100770.03;5065431;28;20047;-80
2021/12/15 00:25:25;;;;;;;51.47;33.28;;;;;;;4.13;100.00;100771.75;5066420;28;20039;-80
2021/12/15 00:27:50;;;;;;;57.60;32.15;;;;;;;4.15;100.00;100776.91;5074643;28;20052;-80
2021/12/15 00:30:16;;;;;;;49.42;33.53;;;;;;;4.12;100.00;100775.19;5074824;28;20113;-80
2021/12/15 00:32:42;;;;;;;49.28;31.85;;;;;;;4.15;100.00;100771.75;5074576;28;20024;-80
2021/12/15 00:35:08;;;;;;;44.47;31.17;;;;;;;4.10;100.00;100766.59;5073673;28;20024;-80
2021/12/15 00:37:34;;;;;;;44.60;30.05;;;;;;;4.20;100.00;100782.91;5074504;28;20025;-80
2021/12/15 00:40:00;;;;;;;43.45;28.48;;;;;;;3.99;100.00;100747.72;5073590;28;20033;-80
2021/12/15 00:42:26;;;;;;;43.63;28.77;;;;;;;4.02;100.00;100746.84;5073475;28;20036;-80
2021/12/15 00:44:52;;;;;;;41.60;28.67;;;;;;;4.17;100.00;100773.47;5074023;28;20024;-80
2021/12/15 00:47:18;;;;;;;42.08;29.90;;;;;;;4.18;100.00;100776.91;5073204;28;20142;-80
2021/12/15 00:49:44;;;;;;;43.90;29.13;;;;;;;4.19;100.00;100778.63;5073117;28;20067;-80
2021/12/15 00:52:10;;;;;;;41.40;29.15;;;;;;;4.20;100.00;100781.19;5074766;28;20479;-81
2021/12/15 00:54:37;;;;;;;40.78;28.60;;;;;;;4.19;100.00;100786.34;5074509;28;20059;-81
2021/12/15 00:57:03;;;;;;;39.03;26.77;;;;;;;4.22;100.00;100786.34;5074463;28;20116;-80
2021/12/15 00:59:29;;;;;;;39.28;27.42;;;;;;;4.23;100.00;100791.50;5074059;28;20020;-80
2021/12/15 01:01:55;;;;;;;40.90;26.95;;;;;;;4.13;100.00;100769.19;5073633;28;20027;-80
2021/12/15 01:04:23;;;;;;;41.28;28.33;;;;;;;4.28;100.00;100794.06;5072884;28;20115;-80
2021/12/15 01:06:52;;;;;;;41.35;28.63;;;;;;;4.22;100.00;100782.03;5073727;28;20104;-80
2021/12/15 01:09:44;;;;;;;43.92;29.77;;;;;;;4.16;100.00;100776.03;5072886;28;20025;-81
2021/12/15 01:20:19;;;;;;;40.72;28.02;;;;;;;4.30;100.00;100794.03;5073189;28;20125;-80
2021/12/15 01:22:48;;;;;;;40.45;26.90;;;;;;;4.24;100.00;100788.03;5073661;28;20025;-79
2021/12/15 01:25:46;;;;;;;40.90;28.42;;;;;;;4.14;100.00;100765.72;5074141;28;20032;-79
2021/12/15 01:28:11;;;;;;;43.92;29.52;;;;;;;4.33;100.00;100801.78;5071306;28;20450;-79
2021/12/15 01:30:42;;;;;;;46.08;30.50;;;;;;;4.25;100.00;100776.84;5071033;28;20044;-79
2021/12/15 01:33:09;;;;;;;50.65;33.63;;;;;;;4.38;100.00;100806.09;5054331;28;20419;-79
2021/12/15 01:35:37;;;;;;;55.88;35.65;;;;;;;4.28;100.00;100791.47;5070975;28;20048;-80
2021/12/15 01:38:03;;;;;;;66.40;40.95;;;;;;;4.34;100.00;100801.78;5071440;28;20066;-80
2021/12/15 01:40:38;;;;;;;71.32;42.30;;;;;;;4.37;100.00;100799.19;5071481;28;20035;-80
2021/12/15 01:43:19;;;;;;;78.47;43.92;;;;;;;4.37;100.00;100803.50;5071067;28;20036;-81
2021/12/15 01:48:58;;;;;;;63.05;38.13;;;;;;;4.29;100.00;100794.91;5050708;28;20105;-80
2021/12/15 01:51:24;;;;;;;63.15;35.67;;;;;;;4.30;100.00;100791.47;5050983;28;20040;-80
2021/12/15 01:53:50;;;;;;;60.78;37.97;;;;;;;4.37;100.00;100803.50;5010552;28;20030;-81
2021/12/15 01:56:16;;;;;;;62.08;37.08;;;;;;;4.34;100.00;100795.75;5011015;28;20501;-80
2021/12/15 01:58:41;;;;;;;60.60;36.85;;;;;;;4.36;100.00;100796.63;5010673;28;20148;-80
2021/12/15 02:01:09;;;;;;;64.75;39.25;;;;;;;4.36;100.00;100805.22;5010949;28;20096;-80
2021/12/15 02:03:37;;;;;;;60.90;39.35;;;;;;;4.37;100.00;100806.91;5011021;28;20045;-80
2021/12/15 02:06:04;;;;;;;59.45;36.97;;;;;;;4.36;100.00;100802.63;4940084;28;20043;-80
2021/12/15 02:08:30;;;;;;;65.53;40.78;;;;;;;4.37;100.00;100800.91;4952537;29;20067;-80
2021/12/15 02:10:56;;;;;;;63.25;40.58;;;;;;;4.35;100.00;100803.50;4952356;29;20078;-80
2021/12/15 02:13:22;;;;;;;72.47;42.67;;;;;;;4.27;100.00;100788.91;4952327;29;20241;-81
2021/12/15 02:15:52;;;;;;;64.20;40.58;;;;;;;4.36;100.00;100812.09;4952137;28;20163;-80
2021/12/15 02:18:21;;;;;;;64.15;37.50;;;;;;;4.37;100.00;100812.09;4952571;29;20043;-79
2021/12/15 02:20:51;;;;;;;64.75;39.95;;;;;;;4.42;100.00;100817.22;4952141;28;20141;-79
2021/12/15 02:23:20;;;;;;;53.07;35.20;;;;;;;4.43;100.00;100808.66;4952375;28;20023;-80
2021/12/15 02:25:47;;;;;;;58.78;37.30;;;;;;;4.44;100.00;100807.78;4986532;28;20045;-80
2021/12/15 02:28:12;;;;;;;62.05;37.20;;;;;;;4.38;100.00;100798.34;4994041;28;20030;-81
2021/12/15 02:30:48;;;;;;;71.03;40.35;;;;;;;4.42;100.00;100805.19;5002787;28;20095;-81
2021/12/15 02:38:39;;;;;;;68.28;38.80;;;;;;;4.43;100.00;100818.97;5052485;28;20051;-80
2021/12/15 02:41:09;;;;;;;62.03;36.63;;;;;;;4.38;100.00;100806.09;5051214;28;20464;-80
2021/12/15 02:43:35;;;;;;;55.75;34.38;;;;;;;4.42;100.00;100804.31;5052485;28;20036;-79
2021/12/15 02:46:02;;;;;;;57.45;37.03;;;;;;;4.45;100.00;100824.97;5050515;28;20052;-80
2021/12/15 02:48:28;;;;;;;60.08;36.72;;;;;;;4.31;100.00;100793.19;5052340;28;20103;-81
2021/12/15 02:50:53;;;;;;;55.38;33.72;;;;;;;4.41;100.00;100812.94;5050918;28;20602;-81
2021/12/15 02:53:19;;;;;;;57.55;34.28;;;;;;;4.44;100.00;100820.66;5052351;28;20028;-81
2021/12/15 02:55:44;;;;;;;56.95;33.63;;;;;;;4.42;100.00;100820.66;5052006;28;20028;-81
2021/12/15 02:58:11;;;;;;;53.67;31.60;;;;;;;4.36;100.00;100801.78;5052225;28;20392;-81
2021/12/15 03:00:49;;;;;;;53.42;33.03;;;;;;;4.34;100.00;100793.16;5050790;28;20043;-80
2021/12/15 03:05:52;;;;;;;57.17;33.75;;;;;;;4.35;100.00;100800.94;5052032;28;20496;-80
2021/12/15 03:08:45;;;;;;;55.20;32.72;;;;;;;4.42;100.00;100812.91;5050744;28;20025;-81
2021/12/15 03:16:41;;;;;;;62.97;34.30;;;;;;;4.45;100.00;100818.06;5052185;28;20047;-80
2021/12/15 03:19:06;;;;;;;61.53;34.72;;;;;;;4.40;100.00;100811.22;5052261;28;20056;-80
2021/12/15 03:21:32;;;;;;;66.90;33.72;;;;;;;4.45;100.00;100823.22;5051774;28;20025;-81
2021/12/15 03:24:03;;;;;;;55.83;32.67;;;;;;;4.46;100.00;100829.25;5051791;28;20040;-80
2021/12/15 03:26:35;;;;;;;56.20;31.98;;;;;;;4.39;100.00;100815.53;5050572;28;20032;-80
2021/12/15 03:34:42;;;;;;;53.38;29.67;;;;;;;4.50;100.00;100836.97;5052061;28;20032;-81
2021/12/15 03:37:26;;;;;;;55.00;30.77;;;;;;;4.53;100.00;100841.28;5051926;28;20043;-79
2021/12/15 03:40:18;;;;;;;60.17;32.97;;;;;;;4.58;100.00;100844.69;5051530;28;20443;-79
2021/12/15 03:42:58;;;;;;;52.78;30.65;;;;;;;4.61;100.00;100846.44;5050780;28;20079;-79
2021/12/15 03:45:34;;;;;;;55.00;29.80;;;;;;;4.59;100.00;100840.41;5053056;28;20053;-79
2021/12/15 03:48:04;;;;;;;56.95;30.40;;;;;;;4.57;100.00;100843.00;5036272;28;20120;-79
2021/12/15 03:50:30;;;;;;;48.55;28.67;;;;;;;4.52;100.00;100825.81;5053131;28;20035;-79
2021/12/15 03:52:56;;;;;;;49.20;27.67;;;;;;;4.54;100.00;100837.81;5036167;28;20119;-79
2021/12/15 03:55:26;;;;;;;52.55;28.65;;;;;;;4.40;100.00;100821.53;5036432;28;20128;-80
2021/12/15 03:57:53;;;;;;;49.97;28.25;;;;;;;4.62;100.00;100858.47;5052816;28;20116;-80
2021/12/15 04:00:20;;;;;;;61.63;32.10;;;;;;;4.51;100.00;100840.44;5036344;28;20048;-80
2021/12/15 04:02:47;;;;;;;60.20;31.80;;;;;;;4.53;100.00;100838.69;5052739;28;20068;-80
2021/12/15 04:05:16;;;;;;;60.67;32.03;;;;;;;4.62;100.00;100845.56;5047164;28;20041;-81
2021/12/15 04:07:42;;;;;;;54.30;29.90;;;;;;;4.67;100.00;100862.72;5027871;28;20500;-80
2021/12/15 04:10:12;;;;;;;55.20;30.63;;;;;;;4.69;100.00;100861.03;5052525;28;20037;-80
2021/12/15 04:12:38;;;;;;;62.90;31.58;;;;;;;4.61;100.00;100836.97;5052417;28;20037;-79
2021/12/15 04:15:30;;;;;;;55.50;29.35;;;;;;;4.70;100.00;100851.56;5035679;28;20114;-82
2021/12/15 04:18:00;;;;;;;51.33;27.27;;;;;;;4.74;100.00;100863.56;5051950;28;20064;-81
2021/12/15 04:20:30;;;;;;;64.75;33.85;;;;;;;4.73;100.00;100854.97;5052548;28;20072;-81
2021/12/15 04:22:56;;;;;;;53.42;27.67;;;;;;;4.74;100.00;100867.00;5052462;28;20178;-81
2021/12/15 04:25:25;;;;;;;52.55;28.73;;;;;;;4.72;100.00;100855.00;5035315;28;20486;-80
2021/12/15 04:28:06;;;;;;;50.78;27.77;;;;;;;4.71;100.00;100851.53;5037635;28;20104;-80
2021/12/15 04:30:34;;;;;;;52.10;28.20;;;;;;;4.70;100.00;100849.81;5032728;28;20045;-80
2021/12/15 04:33:07;;;;;;;58.53;28.42;;;;;;;4.76;100.00;100848.94;5032433;28;20542;-80
2021/12/15 04:35:34;;;;;;;58.03;29.98;;;;;;;4.76;100.00;100848.94;5032460;28;20044;-79
2021/12/15 04:38:00;;;;;;;58.15;30.33;;;;;;;4.68;100.00;100835.22;5032428;28;20029;-80
2021/12/15 04:40:26;;;;;;;59.08;28.65;;;;;;;4.78;100.00;100862.72;5032406;28;20087;-80
2021/12/15 04:42:54;;;;;;;56.90;29.83;;;;;;;4.71;100.00;100843.78;5045348;28;20037;-80
2021/12/15 04:45:21;;;;;;;55.00;28.50;;;;;;;4.65;100.00;100835.22;5053213;28;20136;-79
2021/12/15 04:47:51;;;;;;;50.72;26.73;;;;;;;4.75;100.00;100865.28;5054485;28;20025;-80
2021/12/15 04:50:17;;;;;;;55.95;29.55;;;;;;;4.80;100.00;100868.72;5054701;28;20025;-80
2021/12/15 04:52:43;;;;;;;52.50;27.50;;;;;;;4.86;100.00;100878.16;5054319;28;20029;-80
2021/12/15 04:55:09;;;;;;;48.30;25.48;;;;;;;4.80;100.00;100879.03;5054259;28;20029;-80
2021/12/15 04:57:35;;;;;;;42.92;23.38;;;;;;;4.71;100.00;100863.59;5053368;28;20056;-79
2021/12/15 05:00:01;;;;;;;41.40;22.67;;;;;;;4.73;100.00;100869.63;5052981;28;20147;-80
2021/12/15 05:02:27;;;;;;;54.00;25.45;;;;;;;4.86;100.00;100889.34;5054768;28;20070;-79
2021/12/15 05:04:53;;;;;;;45.13;24.08;;;;;;;4.74;100.00;100872.19;5054090;28;20357;-80
2021/12/15 05:07:20;;;;;;;44.47;23.40;;;;;;;4.78;100.00;100869.59;5054213;28;20393;-80
2021/12/15 05:09:49;;;;;;;43.60;23.98;;;;;;;4.71;100.00;100863.59;5052798;28;20025;-80
2021/12/15 05:12:17;;;;;;;50.33;25.67;;;;;;;4.87;100.00;100892.78;5054341;28;20021;-79
2021/12/15 05:14:43;;;;;;;50.28;27.17;;;;;;;4.88;100.00;100882.44;5052866;28;20120;-80
2021/12/15 05:17:09;;;;;;;52.17;28.25;;;;;;;4.89;100.00;100881.59;5052509;28;20119;-80
2021/12/15 05:19:34;;;;;;;48.70;27.20;;;;;;;4.90;100.00;100892.78;5052718;28;20151;-80
2021/12/15 05:22:00;;;;;;;55.38;29.05;;;;;;;4.79;100.00;100879.91;5054082;28;20108;-80
2021/12/15 05:27:01;;;;;;;43.15;23.75;;;;;;;4.85;100.00;100892.81;5053751;28;20100;-79
2021/12/15 05:29:28;;;;;;;47.17;25.00;;;;;;;4.82;100.00;100889.38;5052652;28;20035;-79
2021/12/15 05:31:54;;;;;;;50.22;25.42;;;;;;;4.92;100.00;100912.56;5053523;28;20025;-79
2021/12/15 05:34:20;;;;;;;43.97;23.25;;;;;;;4.84;100.00;100901.38;5052452;28;20029;-79
2021/12/15 05:36:48;;;;;;;49.15;25.38;;;;;;;4.95;100.00;100916.84;5052355;28;20083;-79
2021/12/15 05:39:14;;;;;;;48.03;24.75;;;;;;;4.84;100.00;100891.06;5053836;28;20033;-79
2021/12/15 05:41:39;;;;;;;46.20;24.40;;;;;;;4.97;100.00;100915.13;5052587;28;20029;-79
2021/12/15 05:44:05;;;;;;;46.17;24.55;;;;;;;4.92;100.00;100904.81;5053575;28;20025;-79
2021/12/15 05:46:32;;;;;;;41.58;23.23;;;;;;;4.97;100.00;100921.16;5053409;28;20049;-79
2021/12/15 05:48:58;;;;;;;52.70;26.40;;;;;;;4.91;100.00;100907.41;5053597;28;20481;-80
2021/12/15 05:51:23;;;;;;;123.55;48.13;;;;;;;4.82;100.00;100882.47;5051987;28;20059;-79
2021/12/15 05:53:49;;;;;;;108.07;42.65;;;;;;;4.86;100.00;100898.81;5052232;28;20082;-79
2021/12/15 05:56:14;;;;;;;69.00;30.83;;;;;;;5.00;100.00;100920.28;5051990;28;20029;-81
2021/12/15 05:58:40;;;;;;;56.00;28.58;;;;;;;4.97;100.00;100913.41;5052096;28;20095;-81
2021/12/15 06:01:06;;;;;;;49.58;25.95;;;;;;;4.97;100.00;100915.13;5053081;28;20056;-81
2021/12/15 06:03:32;;;;;;;47.30;23.45;;;;;;;4.98;100.00;100915.13;5051747;28;20021;-80
2021/12/15 06:05:57;;;;;;;44.78;22.73;;;;;;;4.95;100.00;100917.72;5052450;28;20040;-79
2021/12/15 06:08:23;;;;;;;45.05;24.50;;;;;;;4.97;100.00;100918.59;5053197;28;20060;-79
2021/12/15 06:10:49;;;;;;;44.38;23.75;;;;;;;4.99;100.00;100929.75;5053033;28;20049;-79
2021/12/15 06:13:14;;;;;;;44.40;22.50;;;;;;;4.97;100.00;100936.66;5052869;28;20032;-80
2021/12/15 06:15:42;;;;;;;41.13;22.55;;;;;;;4.93;100.00;100932.38;5051611;28;20052;-80
2021/12/15 06:18:11;;;;;;;37.75;19.85;;;;;;;4.93;100.00;100932.38;5052684;28;20160;-80
2021/12/15 06:20:37;;;;;;;38.55;21.80;;;;;;;4.97;100.00;100936.66;5052735;28;20028;-80
2021/12/15 06:23:10;;;;;;;40.28;22.17;;;;;;;4.98;100.00;100940.94;5051430;28;20107;-80
2021/12/15 06:25:37;;;;;;;44.33;23.33;;;;;;;5.03;100.00;100953.00;5052907;28;20115;-80
2021/12/15 06:28:03;;;;;;;45.53;22.17;;;;;;;5.01;100.00;100942.66;5052714;28;20025;-79
2021/12/15 06:30:28;;;;;;;42.58;22.77;;;;;;;4.99;100.00;100941.81;5051414;28;20037;-80
2021/12/15 06:32:54;;;;;;;49.30;25.55;;;;;;;4.98;100.00;100940.09;5051243;28;20500;-78
2021/12/15 06:35:19;;;;;;;67.70;35.63;;;;;;;4.99;100.00;100936.66;5052326;28;20445;-80
2021/12/15 06:37:45;;;;;;;98.20;46.38;;;;;;;4.97;100.00;100941.81;5052467;28;20544;-80
2021/12/15 06:40:11;;;;;;;124.57;58.10;;;;;;;4.93;100.00;100937.53;5052631;28;20789;-80
2021/12/15 06:42:38;;;;;;;139.25;62.25;;;;;;;5.02;100.00;100948.69;5052491;28;20087;-79
2021/12/15 06:45:05;;;;;;;120.90;56.38;;;;;;;4.86;100.00;100919.47;5050519;28;20496;-79
2021/12/15 06:58:24;;;;;;;79.28;48.63;;;;;;;4.98;100.00;100938.38;5052222;28;20043;-80
2021/12/15 07:00:56;;;;;;;82.25;51.38;;;;;;;5.07;100.00;100955.56;5052222;28;20032;-79
2021/12/15 07:03:23;;;;;;;72.45;46.30;;;;;;;5.02;100.00;100939.22;5050830;28;20029;-79
2021/12/15 07:05:50;;;;;;;66.38;39.85;;;;;;;5.05;100.00;100949.53;5050778;28;20025;-79
2021/12/15 07:08:16;;;;;;;57.33;31.58;;;;;;;4.94;100.00;100928.91;5051671;28;20087;-79
2021/12/15 07:10:48;;;;;;;56.10;29.05;;;;;;;4.97;100.00;100947.00;5051890;28;20483;-79
2021/12/15 07:13:17;;;;;;;53.00;28.48;;;;;;;5.06;100.00;100965.91;5051648;28;20028;-79
2021/12/15 07:15:45;;;;;;;51.38;25.23;;;;;;;5.03;100.00;100963.31;5050602;28;20036;-79
2021/12/15 07:18:14;;;;;;;44.55;23.27;;;;;;;5.09;100.00;100973.63;5050893;28;20082;-79
2021/12/15 07:20:48;;;;;;;41.85;22.38;;;;;;;5.10;100.00;100980.50;5051465;28;20120;-80
2021/12/15 07:23:17;;;;;;;41.60;21.77;;;;;;;5.14;100.00;100982.19;5051535;28;20082;-80
2021/12/15 07:25:46;;;;;;;41.38;22.23;;;;;;;5.18;100.00;100981.31;5051971;28;20078;-80
2021/12/15 07:28:12;;;;;;;37.38;19.85;;;;;;;5.16;100.00;100976.19;5051599;28;20043;-80
2021/12/15 07:30:38;;;;;;;41.40;20.25;;;;;;;5.17;100.00;100974.44;5051758;28;20036;-79
2021/12/15 07:33:06;;;;;;;44.45;23.50;;;;;;;5.19;100.00;100975.31;5051574;28;20059;-79
2021/12/15 07:35:32;;;;;;;41.72;21.25;;;;;;;5.22;100.00;100976.19;5051664;28;20063;-80
2021/12/15 07:37:58;;;;;;;44.70;23.75;;;;;;;5.24;100.00;100986.50;5050142;28;20029;-80
2021/12/15 07:40:25;;;;;;;38.75;20.58;;;;;;;5.26;100.00;100979.56;5051894;28;20090;-79
2021/12/15 07:43:07;;;;;;;44.53;22.15;;;;;;;5.25;100.00;100983.03;5050404;28;20726;-79
2021/12/15 07:45:46;;;;;;;39.13;19.80;;;;;;;5.28;100.00;100980.44;5051577;28;20102;-79
2021/12/15 07:48:14;;;;;;;39.45;20.25;;;;;;;5.30;100.00;100983.00;5028729;28;20045;-79
2021/12/15 07:50:43;;;;;;;47.15;22.17;;;;;;;5.31;100.00;100985.63;5029209;28;20467;-79
2021/12/15 07:53:08;;;;;;;43.13;20.67;;;;;;;5.25;100.00;100963.22;5012334;28;20041;-79
2021/12/15 07:55:35;;;;;;;41.28;21.42;;;;;;;5.36;100.00;100973.53;5009920;28;20558;-78
2021/12/15 07:58:02;;;;;;;44.63;22.52;;;;;;;5.37;100.00;100975.25;5028894;28;20037;-79
2021/12/15 08:00:29;;;;;;;51.03;24.65;;;;;;;5.40;100.00;100969.22;5029132;28;20113;-79
2021/12/15 08:02:55;;;;;;;41.22;21.63;;;;;;;5.42;100.00;100970.06;5012370;28;20048;-79
2021/12/15 08:05:21;;;;;;;48.25;24.65;;;;;;;5.37;100.00;100952.00;5029066;28;20030;-79
2021/12/15 08:07:49;;;;;;;53.17;28.40;;;;;;;5.49;100.00;100970.03;5029073;28;20155;-79
2021/12/15 08:10:16;;;;;;;60.13;29.38;;;;;;;5.47;100.00;100970.88;5029089;28;20040;-78
2021/12/15 08:12:43;;;;;;;62.40;32.08;;;;;;;5.54;100.00;100971.72;5029180;28;20034;-79
2021/12/15 08:15:10;;;;;;;56.95;30.92;;;;;;;5.51;100.00;100972.59;5010919;28;20064;-79
2021/12/15 08:17:41;;;;;;;53.42;28.33;;;;;;;5.45;100.00;100960.56;5029082;28;20180;-79
2021/12/15 08:20:11;;;;;;;53.67;30.23;;;;;;;5.54;100.00;100976.91;5048502;28;20068;-79
2021/12/15 08:22:38;;;;;;;58.10;31.92;;;;;;;5.58;100.00;100971.69;5051307;28;20029;-80
2021/12/15 08:25:07;;;;;;;51.85;29.75;;;;;;;5.40;100.00;100949.41;5049801;28;20484;-80
2021/12/15 08:27:32;;;;;;;47.30;24.80;;;;;;;5.55;100.00;100976.88;5049835;28;20484;-80
2021/12/15 08:29:59;;;;;;;40.53;22.75;;;;;;;5.48;100.00;100957.13;5054314;28;20029;-80
2021/12/15 08:32:25;;;;;;;38.17;21.35;;;;;;;5.53;100.00;100962.25;5053696;28;20033;-80
2021/12/15 08:34:50;;;;;;;47.85;23.20;;;;;;;5.64;100.00;100971.66;5036959;28;20090;-80
2021/12/15 08:37:16;;;;;;;34.83;19.70;;;;;;;5.58;100.00;100952.75;5054628;28;20033;-79
2021/12/15 08:39:44;;;;;;;41.22;20.75;;;;;;;5.71;100.00;100964.75;5059906;28;20036;-79
2021/12/15 08:42:13;;;;;;;43.42;23.92;;;;;;;5.72;100.00;100976.78;5072409;28;20221;-80
2021/12/15 08:44:42;;;;;;;48.22;24.90;;;;;;;5.75;100.00;100982.81;5047512;28;20098;-78
2021/12/15 08:47:08;;;;;;;47.90;24.65;;;;;;;5.81;100.00;100987.06;5051760;28;20242;-79
2021/12/15 08:49:35;;;;;;;48.80;27.23;;;;;;;5.81;100.00;100981.03;5090294;28;20052;-79
2021/12/15 08:52:04;;;;;;;48.67;27.98;;;;;;;5.79;100.00;100988.81;5091969;28;20101;-79
2021/12/15 08:54:30;;;;;;;51.83;28.40;;;;;;;5.83;100.00;100993.13;5075267;28;20115;-79
2021/12/15 08:56:57;;;;;;;61.17;32.45;;;;;;;5.86;100.00;101006.03;5083109;28;20032;-79
2021/12/15 08:59:23;;;;;;;55.13;30.17;;;;;;;5.82;100.00;100982.78;5071604;28;20040;-79
2021/12/15 09:01:52;;;;;;;47.13;27.58;;;;;;;5.88;100.00;101006.88;5071574;28;20106;-79
2021/12/15 09:04:18;;;;;;;45.63;27.08;;;;;;;5.79;100.00;100986.25;5071260;28;20040;-79
2021/12/15 09:06:46;;;;;;;47.83;25.63;;;;;;;5.92;100.00;100987.91;5071655;28;20040;-79
2021/12/15 09:09:14;;;;;;;61.13;35.13;;;;;;;5.95;100.00;100995.66;5031294;28;20050;-80
2021/12/15 09:11:41;;;;;;;60.58;34.63;;;;;;;5.92;100.00;100982.75;5031574;28;20047;-80
2021/12/15 09:14:11;;;;;;;54.38;36.60;;;;;;;5.90;100.00;100973.22;5023986;28;20094;-80
2021/12/15 09:16:40;;;;;;;57.78;38.72;;;;;;;6.04;100.00;100983.53;5031281;28;20052;-77
2021/12/15 09:19:06;;;;;;;60.42;38.83;;;;;;;5.88;100.00;100951.72;5031229;28;20535;-77
2021/12/15 09:21:34;;;;;;;58.15;35.63;;;;;;;6.00;100.00;100968.03;5031655;28;20053;-79
2021/12/15 09:24:05;;;;;;;47.67;32.55;;;;;;;6.12;100.00;100977.44;5028015;28;20038;-79
2021/12/15 09:26:35;;;;;;;47.50;29.65;;;;;;;6.08;100.00;100967.13;4995396;28;20050;-79
2021/12/15 09:29:03;;;;;;;48.70;32.35;;;;;;;6.15;100.00;100972.25;5011214;28;20045;-79
2021/12/15 09:31:29;;;;;;;47.17;30.85;;;;;;;6.19;100.00;100963.59;4992740;28;20074;-79
2021/12/15 09:34:00;;;;;;;46.88;32.63;;;;;;;6.27;100.00;100963.53;4991553;28;20390;-78
2021/12/15 09:36:28;;;;;;;43.92;29.10;;;;;;;6.09;100.00;100925.72;5010289;28;20030;-80
2021/12/15 09:38:59;;;;;;;38.88;26.75;;;;;;;6.20;100.00;100949.78;5011475;28;20045;-79
2021/12/15 09:41:27;;;;;;;;;;;;;;;6.28;100.00;100965.25;5010869;28;20053;-79
2021/12/15 09:43:56;;;;;;;35.88;24.35;;;;;;;6.25;100.00;100954.94;5011459;28;19910;-79
2021/12/15 10:02:00;;;;;;;31.98;22.08;;;;;;;6.31;100.00;100951.41;5030311;28;20519;-78
2021/12/15 10:03:47;;;;;;;25.73;19.38;;;;;;;6.34;100.00;100951.41;5028210;28;20499;-79
2021/12/15 10:19:39;;;;;;;32.50;23.38;;;;;;;6.43;100.00;100941.81;5041493;28;20051;-79
2021/12/15 10:22:34;;;;;;;38.95;28.60;;;;;;;6.40;100.00;100930.63;5057712;28;20024;-80
2021/12/15 10:25:24;;;;;;;33.10;25.38;;;;;;;6.46;100.00;100928.88;5060409;28;20119;-79
2021/12/15 10:28:11;;;;;;;34.37;24.90;;;;;;;6.58;100.00;100940.84;5071551;28;20028;-79
2021/12/15 10:30:50;;;;;;;30.45;23.17;;;;;;;6.58;100.00;100940.84;5079016;28;20413;-79
2021/12/15 10:33:32;;;;;;;31.45;22.25;;;;;;;6.66;100.00;100940.75;5060796;28;20024;-79
2021/12/15 10:36:10;;;;;;;33.20;24.63;;;;;;;6.61;100.00;100930.44;5062968;28;20016;-80
2021/12/15 10:38:44;;;;;;;33.53;26.27;;;;;;;6.69;100.00;100936.38;5063223;28;20070;-79
2021/12/15 10:41:26;;;;;;;33.22;25.13;;;;;;;6.72;100.00;100935.50;5061868;28;20025;-79
2021/12/15 10:44:09;;;;;;;36.17;25.20;;;;;;;6.65;100.00;100923.50;5062801;28;20111;-79
2021/12/15 10:46:39;;;;;;;30.45;24.60;;;;;;;6.76;100.00;100937.19;5061201;28;20049;-79
2021/12/15 10:49:12;;;;;;;28.33;22.55;;;;;;;6.80;100.00;100931.13;5084447;28;20467;-78
2021/12/15 10:51:41;;;;;;;29.95;21.48;;;;;;;6.86;100.00;100933.63;5092102;28;20028;-79
2021/12/15 10:54:14;;;;;;;27.45;21.13;;;;;;;6.85;100.00;100926.75;5092357;28;20020;-78
2021/12/15 10:56:48;;;;;;;24.02;18.98;;;;;;;6.85;100.00;100912.94;5092508;28;20119;-78
2021/12/15 10:59:16;;;;;;;25.35;20.33;;;;;;;6.91;100.00;100924.09;5056197;28;20028;-78
2021/12/15 11:01:50;;;;;;;30.25;24.17;;;;;;;6.96;100.00;100929.22;5092126;28;20027;-79
2021/12/15 11:04:27;;;;;;;38.15;28.17;;;;;;;6.98;100.00;100930.03;5092199;28;20028;-78
2021/12/15 11:07:05;;;;;;;30.90;23.58;;;;;;;6.88;100.00;100911.19;5092256;28;20073;-79
2021/12/15 11:09:39;;;;;;;28.35;22.25;;;;;;;6.96;100.00;100924.91;5092488;28;20103;-79
2021/12/15 11:12:12;;;;;;;27.50;19.60;;;;;;;6.97;100.00;100920.56;5091988;28;20119;-80
2021/12/15 11:14:42;;;;;;;22.88;18.48;;;;;;;6.79;100.00;100892.31;5092067;28;20060;-79
2021/12/15 11:17:24;;;;;;;23.25;19.23;;;;;;;6.99;100.00;100918.81;5090552;28;20376;-79
2021/12/15 11:19:49;;;;;;;25.90;19.73;;;;;;;7.03;100.00;100920.47;5092441;28;20028;-79
2021/12/15 11:22:53;;;;;;;26.60;18.90;;;;;;;7.07;100.00;100934.25;5091741;28;20034;-79
2021/12/15 11:25:31;;;;;;;26.45;20.40;;;;;;;7.09;100.00;100935.13;5089371;28;20036;-79
2021/12/15 11:28:18;;;;;;;24.98;19.80;;;;;;;6.99;100.00;100913.63;5072657;28;20043;-79
2021/12/15 11:31:06;;;;;;;22.20;18.02;;;;;;;6.92;100.00;100902.50;5069541;28;20109;-78
2021/12/15 11:33:42;;;;;;;23.35;19.50;;;;;;;6.95;100.00;100906.75;5055741;28;20491;-79
2021/12/15 11:36:21;;;;;;;29.23;21.25;;;;;;;7.07;100.00;100929.09;5048872;28;20037;-79
2021/12/15 11:39:11;;;;;;;22.00;17.77;;;;;;;6.95;100.00;100910.25;5032390;28;20025;-79
2021/12/15 11:41:54;;;;;;;26.85;19.75;;;;;;;7.06;100.00;100929.97;5049154;28;20029;-79
2021/12/15 11:44:25;;;;;;;26.63;20.63;;;;;;;6.98;100.00;100917.94;5049272;28;20085;-79
2021/12/15 11:47:04;;;;;;;31.77;22.13;;;;;;;7.00;100.00;100929.16;5032071;28;20045;-79
2021/12/15 11:49:34;;;;;;;30.98;21.83;;;;;;;7.01;100.00;100932.59;5088641;28;20028;-79
2021/12/15 11:52:06;;;;;;;31.50;23.13;;;;;;;7.01;100.00;100930.03;5089308;28;20031;-79
2021/12/15 11:54:45;;;;;;;35.45;22.60;;;;;;;6.98;100.00;100924.88;5089244;28;20049;-79
2021/12/15 11:57:23;;;;;;;28.60;21.27;;;;;;;6.94;100.00;100916.25;5088949;28;20089;-79
2021/12/15 11:59:52;;;;;;;28.38;21.50;;;;;;;6.99;100.00;100923.97;5089315;28;20134;-79
2021/12/15 12:02:26;;;;;;;29.63;23.35;;;;;;;7.05;100.00;100929.13;5089900;28;20058;-79
2021/12/15 12:05:01;;;;;;;28.48;21.85;;;;;;;7.00;100.00;100921.41;5095337;28;20028;-79
2021/12/15 12:07:39;;;;;;;29.33;21.60;;;;;;;6.90;100.00;100899.03;5095488;28;20059;-79
2021/12/15 12:10:32;;;;;;;27.48;20.42;;;;;;;6.99;100.00;100917.09;5095212;28;20480;-79
2021/12/15 12:13:10;;;;;;;24.30;18.45;;;;;;;7.09;100.00;100937.72;5095701;28;20039;-80
2021/12/15 12:15:40;;;;;;;29.38;19.38;;;;;;;7.05;100.00;100925.66;5095510;28;20031;-79
2021/12/15 12:18:17;;;;;;;33.03;22.65;;;;;;;7.04;100.00;100924.81;5079808;28;20078;-79
2021/12/15 12:20:49;;;;;;;38.35;26.48;;;;;;;6.99;100.00;100914.50;5070444;28;20488;-79
2021/12/15 12:23:18;;;;;;;33.80;24.63;;;;;;;7.09;100.00;100933.38;5054676;28;20422;-79
2021/12/15 12:25:49;;;;;;;30.90;22.02;;;;;;;7.10;100.00;100937.69;5055119;28;20521;-79
2021/12/15 12:28:21;;;;;;;24.45;19.33;;;;;;;7.09;100.00;100938.56;5073740;28;20020;-79
2021/12/15 12:30:54;;;;;;;32.63;23.48;;;;;;;7.00;100.00;100921.41;5074956;28;20036;-79
2021/12/15 12:33:22;;;;;;;28.05;21.52;;;;;;;7.09;100.00;100940.31;5074814;28;20020;-79